createdAt,value
2022-11-12T00:00:59.219Z,8.10
2022-11-12T00:03:26.712Z,8.10
2022-11-12T00:05:53.695Z,8.10
2022-11-12T00:08:20.397Z,7.90
2022-11-12T00:10:47.215Z,8.20
2022-11-12T00:13:14.329Z,8.20
2022-11-12T00:15:41.068Z,8.20
2022-11-12T00:18:08.570Z,8.10
2022-11-12T00:20:35.361Z,8.10
2022-11-12T00:23:02.029Z,8.10
2022-11-12T00:25:28.624Z,8.10
2022-11-12T00:28:01.600Z,8.10
2022-11-12T00:30:28.244Z,8.20
2022-11-12T00:32:54.818Z,8.20
2022-11-12T00:35:21.402Z,8.10
2022-11-12T00:37:47.934Z,8.00
2022-11-12T00:40:14.759Z,8.00
2022-11-12T00:42:41.302Z,8.00
2022-11-12T00:45:08.149Z,8.00
2022-11-12T00:47:34.725Z,8.00
2022-11-12T00:50:01.255Z,7.80
2022-11-12T00:52:27.777Z,7.90
2022-11-12T00:54:54.372Z,7.90
2022-11-12T00:57:20.927Z,7.90
2022-11-12T00:59:47.486Z,8.00
2022-11-12T01:02:14.032Z,8.00
2022-11-12T01:04:40.549Z,8.00
2022-11-12T01:07:07.171Z,8.00
2022-11-12T01:09:33.773Z,8.10
2022-11-12T01:12:00.474Z,8.10
2022-11-12T01:14:27.018Z,8.10
2022-11-12T01:16:53.637Z,8.20
2022-11-12T01:19:20.199Z,8.20
2022-11-12T01:21:46.713Z,8.10
2022-11-12T01:24:13.311Z,8.20
2022-11-12T01:26:40.620Z,8.20
2022-11-12T01:29:07.400Z,8.20
2022-11-12T01:31:36.336Z,8.20
2022-11-12T01:34:08.400Z,8.20
2022-11-12T01:36:37.522Z,8.10
2022-11-12T01:39:05.852Z,8.10
2022-11-12T01:41:36.157Z,8.10
2022-11-12T01:44:14.951Z,8.10
2022-11-12T01:46:55.252Z,8.00
2022-11-12T01:49:27.118Z,8.10
2022-11-12T01:51:58.425Z,8.00
2022-11-12T01:54:26.485Z,8.00
2022-11-12T01:56:54.886Z,8.10
2022-11-12T01:59:30.939Z,8.10
2022-11-12T02:01:57.894Z,8.10
2022-11-12T02:04:26.492Z,8.00
2022-11-12T02:06:55.072Z,8.00
2022-11-12T02:09:21.863Z,7.90
2022-11-12T02:11:48.465Z,7.90
2022-11-12T02:14:15.316Z,7.90
2022-11-12T02:16:45.063Z,7.80
2022-11-12T02:19:16.660Z,7.80
2022-11-12T02:21:43.722Z,7.70
2022-11-12T02:24:13.224Z,7.70
2022-11-12T02:26:51.143Z,7.70
2022-11-12T02:29:17.815Z,7.70
2022-11-12T02:31:44.340Z,7.70
2022-11-12T02:34:10.875Z,7.70
2022-11-12T02:36:37.549Z,7.80
2022-11-12T02:39:04.725Z,7.70
2022-11-12T02:41:31.339Z,7.70
2022-11-12T02:43:58.833Z,7.70
2022-11-12T02:46:25.476Z,7.80
2022-11-12T02:48:52.062Z,7.80
2022-11-12T02:51:18.605Z,7.70
2022-11-12T02:53:45.141Z,7.60
2022-11-12T02:56:11.873Z,7.60
2022-11-12T02:58:38.407Z,7.50
2022-11-12T03:01:05.405Z,7.50
2022-11-12T03:03:32.018Z,8.30
2022-11-12T03:06:01.022Z,7.50
2022-11-12T03:08:28.259Z,7.40
2022-11-12T03:10:55.050Z,7.40
2022-11-12T03:13:22.046Z,7.40
2022-11-12T03:15:48.849Z,7.30
2022-11-12T03:18:15.612Z,7.30
2022-11-12T03:20:42.185Z,7.30
2022-11-12T03:23:13.731Z,7.30
2022-11-12T03:25:40.309Z,7.30
2022-11-12T03:28:09.657Z,7.30
2022-11-12T03:30:38.935Z,7.40
2022-11-12T03:33:07.062Z,7.20
2022-11-12T03:35:34.106Z,7.30
2022-11-12T03:38:01.234Z,7.20
2022-11-12T03:40:28.489Z,7.30
2022-11-12T03:42:55.142Z,7.30
2022-11-12T03:45:23.553Z,7.50
2022-11-12T03:47:52.591Z,7.60
2022-11-12T03:50:21.394Z,7.60
2022-11-12T03:52:50.676Z,7.50
2022-11-12T03:55:19.144Z,7.40
2022-11-12T03:57:47.590Z,7.30
2022-11-12T04:00:14.284Z,7.20
2022-11-12T04:02:41.233Z,7.10
2022-11-12T04:05:27.129Z,7.10
2022-11-12T04:08:17.256Z,7.00
2022-11-12T04:10:44.142Z,7.00
2022-11-12T04:13:29.537Z,6.90
2022-11-12T04:16:24.420Z,6.90
2022-11-12T04:19:11.709Z,6.90
2022-11-12T04:21:50.900Z,6.90
2022-11-12T04:25:01.336Z,6.80
2022-11-12T04:27:33.414Z,6.80
2022-11-12T04:30:18.866Z,6.80
2022-11-12T04:32:56.953Z,6.70
2022-11-12T04:35:24.953Z,6.80
2022-11-12T04:37:52.024Z,6.80
2022-11-12T04:40:45.851Z,6.80
2022-11-12T04:43:33.786Z,6.80
2022-11-12T04:46:01.430Z,6.70
2022-11-12T04:48:28.517Z,6.70
2022-11-12T04:51:03.401Z,6.70
2022-11-12T04:53:30.906Z,6.70
2022-11-12T04:55:58.838Z,6.70
2022-11-12T04:58:26.001Z,6.70
2022-11-12T05:00:53.037Z,6.60
2022-11-12T05:03:22.815Z,6.60
2022-11-12T05:05:49.377Z,6.60
2022-11-12T05:08:15.994Z,6.60
2022-11-12T05:10:42.532Z,6.60
2022-11-12T05:13:09.067Z,6.60
2022-11-12T05:15:35.621Z,6.60
2022-11-12T05:18:02.199Z,6.60
2022-11-12T05:20:28.723Z,6.50
2022-11-12T05:23:06.122Z,6.50
2022-11-12T05:25:35.486Z,6.50
2022-11-12T05:28:02.010Z,6.50
2022-11-12T05:30:28.560Z,6.50
2022-11-12T05:32:55.124Z,6.50
2022-11-12T05:35:21.712Z,6.60
2022-11-12T05:37:48.255Z,6.60
2022-11-12T05:40:14.870Z,6.60
2022-11-12T05:42:41.390Z,6.50
2022-11-12T05:45:08.589Z,6.40
2022-11-12T05:47:35.153Z,6.30
2022-11-12T05:50:01.719Z,6.20
2022-11-12T05:52:28.252Z,6.30
2022-11-12T05:54:54.812Z,6.40
2022-11-12T05:57:21.393Z,6.50
2022-11-12T05:59:47.927Z,6.50
2022-11-12T06:02:14.626Z,6.50
2022-11-12T06:04:41.260Z,6.40
2022-11-12T06:07:07.884Z,6.40
2022-11-12T06:09:34.492Z,6.30
2022-11-12T06:12:02.391Z,6.20
2022-11-12T06:14:28.919Z,6.20
2022-11-12T06:16:55.506Z,6.30
2022-11-12T06:19:22.038Z,6.30
2022-11-12T06:21:49.772Z,6.30
2022-11-12T06:24:16.894Z,6.20
2022-11-12T06:26:43.493Z,6.30
2022-11-12T06:29:10.045Z,6.30
2022-11-12T06:31:36.616Z,6.30
2022-11-12T06:34:03.193Z,6.30
2022-11-12T06:36:29.812Z,6.30
2022-11-12T06:38:56.402Z,6.30
2022-11-12T06:41:22.989Z,6.30
2022-11-12T06:43:49.544Z,6.30
2022-11-12T06:46:17.232Z,6.10
2022-11-12T06:48:43.856Z,6.30
2022-11-12T06:51:20.772Z,6.30
2022-11-12T06:53:47.898Z,6.40
2022-11-12T06:56:15.165Z,6.30
2022-11-12T06:58:42.101Z,6.40
2022-11-12T07:01:14.060Z,6.40
2022-11-12T07:03:41.840Z,6.40
2022-11-12T07:06:14.548Z,6.70
2022-11-12T07:08:42.049Z,6.60
2022-11-12T07:11:08.735Z,6.70
2022-11-12T07:13:36.259Z,6.80
2022-11-12T07:16:04.879Z,6.90
2022-11-12T07:18:32.060Z,7.10
2022-11-12T07:21:00.362Z,7.20
2022-11-12T07:23:27.620Z,7.40
2022-11-12T07:26:02.399Z,7.60
2022-11-12T07:28:29.926Z,7.70
2022-11-12T07:31:01.703Z,7.80
2022-11-12T07:33:29.140Z,7.80
2022-11-12T07:35:59.079Z,7.90
2022-11-12T07:38:26.785Z,8.00
2022-11-12T07:41:02.266Z,8.10
2022-11-12T07:43:30.453Z,8.20
2022-11-12T07:46:10.264Z,8.30
2022-11-12T07:48:38.055Z,8.40
2022-11-12T07:51:16.567Z,8.50
2022-11-12T07:53:44.403Z,8.60
2022-11-12T07:56:12.939Z,8.60
2022-11-12T07:58:40.131Z,8.70
2022-11-12T08:01:10.843Z,8.70
2022-11-12T08:03:37.537Z,8.70
2022-11-12T08:06:04.604Z,8.70
2022-11-12T08:08:31.158Z,8.80
2022-11-12T08:10:58.589Z,8.70
2022-11-12T08:13:25.569Z,8.70
2022-11-12T08:15:52.564Z,8.70
2022-11-12T08:18:19.196Z,8.70
2022-11-12T08:20:45.752Z,8.80
2022-11-12T08:23:12.336Z,8.90
2022-11-12T08:25:38.931Z,8.60
2022-11-12T08:28:05.510Z,8.70
2022-11-12T08:30:32.093Z,8.70
2022-11-12T08:33:01.258Z,8.80
2022-11-12T08:35:28.739Z,8.90
2022-11-12T08:37:59.857Z,9.00
2022-11-12T08:40:28.500Z,9.00
2022-11-12T08:43:07.238Z,9.20
2022-11-12T08:45:36.716Z,9.20
2022-11-12T08:48:09.342Z,9.30
2022-11-12T08:50:36.701Z,9.30
2022-11-12T08:53:06.162Z,9.40
2022-11-12T08:55:34.129Z,8.80
2022-11-12T08:58:04.239Z,9.50
2022-11-12T09:00:33.064Z,9.70
2022-11-12T09:03:04.184Z,9.80
2022-11-12T09:05:31.071Z,10.10
2022-11-12T09:08:03.624Z,10.40
2022-11-12T09:10:30.627Z,10.70
2022-11-12T09:12:57.830Z,10.80
2022-11-12T09:15:40.950Z,11.00
2022-11-12T09:18:11.788Z,11.20
2022-11-12T09:20:38.365Z,11.30
2022-11-12T09:23:11.735Z,11.40
2022-11-12T09:25:39.598Z,11.50
2022-11-12T09:28:11.793Z,11.50
2022-11-12T09:30:43.156Z,11.50
2022-11-12T09:33:09.726Z,11.40
2022-11-12T09:35:36.329Z,11.20
2022-11-12T09:38:02.911Z,11.20
2022-11-12T09:40:51.550Z,11.30
2022-11-12T09:43:24.458Z,11.40
2022-11-12T09:46:06.919Z,11.30
2022-11-12T09:48:44.324Z,11.40
2022-11-12T09:51:28.361Z,11.40
2022-11-12T09:53:58.006Z,11.50
2022-11-12T09:56:26.086Z,11.50
2022-11-12T09:58:53.469Z,11.70
2022-11-12T10:01:33.086Z,11.70
2022-11-12T10:04:30.637Z,11.70
2022-11-12T10:07:09.078Z,11.80
2022-11-12T10:09:44.876Z,11.80
2022-11-12T10:12:34.807Z,11.80
2022-11-12T10:15:45.935Z,11.80
2022-11-12T10:18:23.679Z,11.90
2022-11-12T10:21:17.555Z,11.90
2022-11-12T10:23:46.774Z,11.90
2022-11-12T10:26:19.131Z,11.90
2022-11-12T10:29:10.500Z,12.20
2022-11-12T10:31:37.285Z,12.20
2022-11-12T10:34:19.210Z,12.20
2022-11-12T10:36:50.299Z,12.30
2022-11-12T10:39:42.248Z,12.30
2022-11-12T10:42:11.964Z,12.40
2022-11-12T10:44:44.737Z,12.50
2022-11-12T10:47:26.330Z,12.50
2022-11-12T10:50:08.258Z,12.60
2022-11-12T10:52:35.660Z,12.60
2022-11-12T10:55:07.383Z,12.70
2022-11-12T10:57:34.017Z,12.80
2022-11-12T11:00:09.571Z,12.80
2022-11-12T11:02:36.230Z,12.90
2022-11-12T11:05:31.474Z,13.00
2022-11-12T11:07:58.512Z,13.20
2022-11-12T11:10:36.203Z,13.20
2022-11-12T11:13:20.881Z,13.20
2022-11-12T11:16:08.626Z,13.20
2022-11-12T11:18:38.777Z,13.00
2022-11-12T11:21:42.656Z,13.10
2022-11-12T11:24:36.774Z,13.10
2022-11-12T11:27:23.176Z,13.20
2022-11-12T11:30:02.010Z,13.20
2022-11-12T11:32:50.213Z,13.20
2022-11-12T11:35:51.565Z,13.00
2022-11-12T11:38:31.996Z,13.00
2022-11-12T11:41:30.314Z,13.10
2022-11-12T11:44:02.978Z,13.10
2022-11-12T11:46:39.208Z,13.10
2022-11-12T11:49:30.679Z,13.20
2022-11-12T11:52:35.001Z,13.20
2022-11-12T11:55:18.831Z,13.20
2022-11-12T11:58:16.684Z,13.30
2022-11-12T12:00:50.171Z,13.40
2022-11-12T12:03:31.711Z,13.60
2022-11-12T12:06:24.845Z,13.70
2022-11-12T12:09:21.085Z,13.80
2022-11-12T12:12:13.077Z,13.70
2022-11-12T12:15:11.466Z,13.80
2022-11-12T12:18:06.856Z,13.90
2022-11-12T12:20:48.568Z,13.60
2022-11-12T12:23:28.498Z,13.80
2022-11-12T12:26:00.389Z,13.70
2022-11-12T12:28:41.955Z,13.70
2022-11-12T12:31:15.067Z,13.70
2022-11-12T12:33:53.945Z,13.70
2022-11-12T12:36:30.258Z,13.70
2022-11-12T12:39:15.862Z,13.80
2022-11-12T12:41:56.929Z,13.90
2022-11-12T12:44:44.421Z,13.90
2022-11-12T12:47:14.016Z,13.90
2022-11-12T12:49:42.840Z,14.00
2022-11-12T12:52:15.274Z,13.90
2022-11-12T12:54:41.844Z,13.90
2022-11-12T12:57:38.526Z,14.00
2022-11-12T13:00:38.258Z,13.90
2022-11-12T13:03:05.951Z,13.80
2022-11-12T13:05:37.334Z,13.70
2022-11-12T13:08:23.568Z,13.80
2022-11-12T13:10:52.133Z,13.90
2022-11-12T13:13:18.674Z,14.30
2022-11-12T13:15:50.295Z,14.40
2022-11-12T13:18:38.838Z,14.50
2022-11-12T13:21:21.450Z,14.30
2022-11-12T13:24:10.702Z,14.00
2022-11-12T13:26:44.165Z,13.90
2022-11-12T13:29:40.579Z,13.80
2022-11-12T13:32:30.358Z,13.80
2022-11-12T13:35:22.515Z,13.70
2022-11-12T13:38:07.881Z,13.60
2022-11-12T13:40:51.534Z,13.40
2022-11-12T13:43:40.011Z,13.30
2022-11-12T13:46:12.067Z,13.40
2022-11-12T13:48:49.096Z,13.30
2022-11-12T13:51:25.798Z,13.20
2022-11-12T13:53:52.586Z,13.10
2022-11-12T13:56:34.345Z,13.10
2022-11-12T13:59:19.221Z,13.00
2022-11-12T14:01:47.208Z,13.00
2022-11-12T14:04:15.917Z,13.00
2022-11-12T14:06:45.498Z,13.00
2022-11-12T14:09:39.005Z,13.00
2022-11-12T14:12:26.745Z,13.10
2022-11-12T14:15:15.087Z,13.10
2022-11-12T14:17:57.304Z,13.00
2022-11-12T14:20:38.796Z,12.90
2022-11-12T14:23:25.525Z,12.80
2022-11-12T14:25:54.898Z,12.80
2022-11-12T14:28:30.947Z,12.90
2022-11-12T14:30:59.403Z,12.80
2022-11-12T14:33:28.163Z,12.70
2022-11-12T14:36:03.808Z,12.70
2022-11-12T14:38:39.872Z,12.80
2022-11-12T14:41:15.794Z,12.80
2022-11-12T14:43:48.251Z,12.60
2022-11-12T14:46:46.212Z,12.50
2022-11-12T14:49:19.483Z,12.40
2022-11-12T14:51:58.373Z,12.40
2022-11-12T14:54:33.425Z,12.40
2022-11-12T14:57:02.156Z,12.30
2022-11-12T14:59:29.042Z,12.20
2022-11-12T15:02:31.657Z,12.20
2022-11-12T15:05:21.244Z,12.10
2022-11-12T15:07:50.889Z,12.10
2022-11-12T15:10:32.843Z,12.00
2022-11-12T15:13:15.593Z,11.80
2022-11-12T15:16:08.007Z,11.80
2022-11-12T15:18:35.640Z,11.70
2022-11-12T15:21:14.379Z,11.50
2022-11-12T15:23:52.564Z,11.50
2022-11-12T15:26:33.823Z,11.40
2022-11-12T15:29:03.211Z,11.40
2022-11-12T15:31:29.742Z,11.30
2022-11-12T15:34:24.378Z,11.40
2022-11-12T15:36:51.111Z,11.40
2022-11-12T15:39:18.360Z,11.40
2022-11-12T15:41:45.010Z,11.40
2022-11-12T15:44:12.320Z,11.30
2022-11-12T15:46:39.145Z,11.20
2022-11-12T15:49:12.744Z,11.00
2022-11-12T15:51:39.294Z,10.90
2022-11-12T15:54:05.883Z,10.70
2022-11-12T15:56:32.596Z,10.80
2022-11-12T15:58:59.218Z,10.70
2022-11-12T16:01:25.932Z,10.70
2022-11-12T16:03:52.506Z,10.70
2022-11-12T16:06:19.051Z,10.60
2022-11-12T16:08:46.361Z,10.50
2022-11-12T16:11:33.306Z,10.40
2022-11-12T16:13:59.987Z,10.30
2022-11-12T16:16:26.543Z,10.20
2022-11-12T16:18:53.143Z,10.10
2022-11-12T16:21:21.097Z,10.10
2022-11-12T16:23:47.808Z,10.00
2022-11-12T16:26:18.948Z,10.00
2022-11-12T16:28:45.483Z,9.90
2022-11-12T16:31:12.014Z,9.80
2022-11-12T16:33:38.568Z,9.70
2022-11-12T16:36:13.530Z,9.70
2022-11-12T16:38:40.069Z,9.60
2022-11-12T16:41:10.616Z,9.60
2022-11-12T16:43:37.414Z,9.50
2022-11-12T16:46:13.454Z,9.50
2022-11-12T16:48:40.052Z,9.50
2022-11-12T16:51:09.612Z,9.50
2022-11-12T16:53:36.183Z,9.50
2022-11-12T16:56:02.777Z,9.50
2022-11-12T16:58:29.392Z,9.40
2022-11-12T17:00:56.029Z,9.40
2022-11-12T17:03:23.582Z,9.40
2022-11-12T17:05:53.189Z,9.40
2022-11-12T17:08:19.981Z,8.90
2022-11-12T17:10:46.653Z,9.10
2022-11-12T17:13:15.298Z,9.30
2022-11-12T17:15:41.893Z,9.30
2022-11-12T17:18:09.655Z,9.30
2022-11-12T17:20:36.520Z,9.40
2022-11-12T17:23:03.115Z,9.40
2022-11-12T17:25:29.891Z,9.20
2022-11-12T17:27:56.456Z,9.20
2022-11-12T17:30:24.556Z,9.10
2022-11-12T17:32:51.139Z,9.10
2022-11-12T17:35:17.734Z,9.10
2022-11-12T17:37:44.804Z,8.80
2022-11-12T17:40:11.499Z,9.10
2022-11-12T17:42:38.104Z,9.00
2022-11-12T17:45:05.111Z,8.90
2022-11-12T17:47:32.465Z,8.90
2022-11-12T17:50:01.384Z,8.90
2022-11-12T17:52:27.993Z,9.00
2022-11-12T17:54:54.590Z,8.90
2022-11-12T17:57:21.131Z,8.90
2022-11-12T17:59:47.689Z,8.90
2022-11-12T18:02:14.223Z,8.90
2022-11-12T18:04:40.795Z,9.00
2022-11-12T18:07:07.383Z,8.90
2022-11-12T18:09:33.939Z,8.90
2022-11-12T18:12:00.974Z,8.80
2022-11-12T18:14:27.526Z,10.50
2022-11-12T18:16:54.179Z,8.80
2022-11-12T18:19:20.823Z,8.70
2022-11-12T18:21:47.476Z,8.70
2022-11-12T18:24:15.937Z,8.70
2022-11-12T18:26:44.082Z,8.70
2022-11-12T18:29:11.309Z,8.70
2022-11-12T18:31:37.963Z,8.70
2022-11-12T18:34:04.560Z,8.60
2022-11-12T18:36:31.184Z,8.50
2022-11-12T18:38:57.854Z,8.60
2022-11-12T18:41:26.741Z,8.60
2022-11-12T18:43:55.049Z,8.70
2022-11-12T18:46:22.268Z,8.70
2022-11-12T18:48:49.174Z,8.60
2022-11-12T18:51:18.564Z,8.50
2022-11-12T18:53:46.266Z,8.50
2022-11-12T18:56:15.934Z,8.40
2022-11-12T18:58:43.099Z,8.40
2022-11-12T19:01:20.890Z,8.40
2022-11-12T19:03:48.669Z,8.30
2022-11-12T19:06:16.567Z,8.30
2022-11-12T19:08:43.114Z,8.20
2022-11-12T19:11:15.124Z,8.20
2022-11-12T19:13:42.385Z,8.20
2022-11-12T19:16:11.906Z,8.20
2022-11-12T19:18:40.816Z,8.30
2022-11-12T19:21:09.905Z,8.30
2022-11-12T19:23:36.630Z,8.30
2022-11-12T19:26:04.922Z,8.40
2022-11-12T19:28:31.525Z,8.40
2022-11-12T19:30:58.164Z,8.50
2022-11-12T19:33:24.711Z,8.50
2022-11-12T19:35:51.304Z,8.60
2022-11-12T19:38:17.832Z,8.70
2022-11-12T19:40:44.433Z,8.90
2022-11-12T19:43:11.055Z,9.00
2022-11-12T19:45:37.633Z,9.10
2022-11-12T19:48:04.405Z,9.10
2022-11-12T19:50:33.286Z,9.20
2022-11-12T19:53:00.195Z,9.20
2022-11-12T19:55:29.022Z,9.30
2022-11-12T19:57:55.687Z,9.20
2022-11-12T20:00:22.458Z,9.40
2022-11-12T20:02:49.055Z,9.30
2022-11-12T20:05:15.719Z,9.50
2022-11-12T20:07:42.412Z,9.50
2022-11-12T20:10:09.449Z,9.40
2022-11-12T20:12:36.530Z,9.50
2022-11-12T20:15:03.234Z,9.50
2022-11-12T20:17:35.032Z,9.50
2022-11-12T20:20:01.711Z,9.50
2022-11-12T20:22:32.282Z,9.60
2022-11-12T20:24:59.584Z,9.60
2022-11-12T20:27:26.419Z,9.60
2022-11-12T20:29:53.106Z,9.60
2022-11-12T20:32:20.334Z,9.70
2022-11-12T20:34:46.871Z,9.70
2022-11-12T20:37:13.414Z,9.80
2022-11-12T20:39:39.934Z,9.80
2022-11-12T20:42:06.528Z,9.80
2022-11-12T20:44:33.127Z,9.80
2022-11-12T20:46:59.710Z,9.90
2022-11-12T20:49:26.247Z,9.90
2022-11-12T20:51:52.779Z,9.90
2022-11-12T20:54:20.736Z,9.90
2022-11-12T20:56:50.511Z,10.00
2022-11-12T20:59:17.196Z,11.80
2022-11-12T21:01:43.955Z,10.00
2022-11-12T21:04:12.591Z,10.50
2022-11-12T21:06:39.237Z,10.10
2022-11-12T21:09:05.900Z,10.10
2022-11-12T21:11:32.495Z,10.20
2022-11-12T21:14:00.667Z,10.20
2022-11-12T21:16:27.367Z,10.20
2022-11-12T21:18:54.078Z,9.80
2022-11-12T21:21:21.372Z,10.20
2022-11-12T21:23:51.577Z,10.20
2022-11-12T21:26:20.983Z,9.90
2022-11-12T21:28:54.555Z,10.20
2022-11-12T21:31:28.502Z,10.20
2022-11-12T21:33:58.165Z,10.20
2022-11-12T21:36:27.653Z,10.20
2022-11-12T21:38:54.307Z,10.30
2022-11-12T21:41:23.630Z,10.30
2022-11-12T21:43:50.495Z,10.30
2022-11-12T21:46:23.547Z,10.40
2022-11-12T21:48:54.821Z,10.40
2022-11-12T21:51:25.385Z,10.40
2022-11-12T21:54:02.826Z,10.40
2022-11-12T21:56:30.142Z,10.40
2022-11-12T21:59:01.160Z,10.50
2022-11-12T22:01:29.988Z,9.20
2022-11-12T22:03:58.728Z,10.40
2022-11-12T22:06:28.013Z,10.50
2022-11-12T22:08:56.351Z,10.50
2022-11-12T22:11:23.393Z,10.50
2022-11-12T22:13:50.094Z,10.50
2022-11-12T22:16:21.958Z,10.50
2022-11-12T22:18:51.587Z,10.50
2022-11-12T22:21:21.734Z,10.50
2022-11-12T22:23:48.421Z,10.50
2022-11-12T22:26:20.900Z,10.50
2022-11-12T22:28:48.141Z,10.50
2022-11-12T22:31:17.159Z,10.50
2022-11-12T22:33:44.308Z,10.50
2022-11-12T22:36:22.891Z,10.50
2022-11-12T22:38:54.204Z,10.60
2022-11-12T22:41:23.534Z,10.50
2022-11-12T22:43:57.084Z,10.50
2022-11-12T22:46:26.151Z,10.50
2022-11-12T22:48:53.048Z,10.50
2022-11-12T22:51:22.256Z,10.50
2022-11-12T22:54:03.516Z,10.50
2022-11-12T22:56:33.782Z,10.50
2022-11-12T22:59:03.383Z,10.60
2022-11-12T23:01:33.208Z,10.50
2022-11-12T23:04:01.853Z,10.50
2022-11-12T23:06:30.086Z,10.40
2022-11-12T23:08:59.033Z,10.50
2022-11-12T23:11:26.343Z,10.50
2022-11-12T23:13:54.004Z,10.60
2022-11-12T23:16:26.282Z,10.60
2022-11-12T23:18:54.816Z,10.60
2022-11-12T23:21:24.489Z,10.70
2022-11-12T23:23:51.393Z,10.60
2022-11-12T23:26:23.868Z,10.50
2022-11-12T23:28:50.848Z,10.60
2022-11-12T23:31:24.121Z,10.60
2022-11-12T23:33:52.901Z,10.60
2022-11-12T23:36:20.423Z,10.60
2022-11-12T23:38:47.566Z,10.60
2022-11-12T23:41:16.730Z,10.60
2022-11-12T23:43:43.973Z,10.50
2022-11-12T23:46:11.756Z,10.60
2022-11-12T23:48:38.440Z,10.60
2022-11-12T23:51:17.691Z,10.60
2022-11-12T23:53:44.848Z,10.60
2022-11-12T23:56:14.051Z,10.60
2022-11-12T23:58:41.829Z,10.60
